createdAt,value
2022-10-06T00:00:13.344Z,3.10
2022-10-06T00:01:16.130Z,2.57
2022-10-06T00:02:19.147Z,2.57
2022-10-06T00:03:24.135Z,2.73
2022-10-06T00:04:25.442Z,2.87
2022-10-06T00:05:26.895Z,2.70
2022-10-06T00:06:28.204Z,3.40
2022-10-06T00:07:29.533Z,2.87
2022-10-06T00:08:31.797Z,3.10
2022-10-06T00:09:33.452Z,3.00
2022-10-06T00:10:35.254Z,3.00
2022-10-06T00:11:36.895Z,2.90
2022-10-06T00:12:39.244Z,3.00
2022-10-06T00:13:41.188Z,3.00
2022-10-06T00:14:42.518Z,3.40
2022-10-06T00:15:43.993Z,3.03
2022-10-06T00:16:45.408Z,2.70
2022-10-06T00:17:46.743Z,3.40
2022-10-06T00:18:48.193Z,2.97
2022-10-06T00:19:49.460Z,3.00
2022-10-06T00:20:54.787Z,2.90
2022-10-06T00:21:56.082Z,3.27
2022-10-06T00:22:57.413Z,2.87
2022-10-06T00:23:58.781Z,3.33
2022-10-06T00:25:00.136Z,2.93
2022-10-06T00:26:01.510Z,3.03
2022-10-06T00:27:02.844Z,3.20
2022-10-06T00:28:04.215Z,2.80
2022-10-06T00:29:05.654Z,3.00
2022-10-06T00:30:09.306Z,3.33
2022-10-06T00:31:11.082Z,3.20
2022-10-06T00:32:12.445Z,2.77
2022-10-06T00:33:16.082Z,3.07
2022-10-06T00:34:17.380Z,2.70
2022-10-06T00:35:19.772Z,3.60
2022-10-06T00:36:22.052Z,2.77
2022-10-06T00:37:25.049Z,3.33
2022-10-06T00:38:26.686Z,2.97
2022-10-06T00:39:28.875Z,3.33
2022-10-06T00:40:30.985Z,3.20
2022-10-06T00:41:32.827Z,3.10
2022-10-06T00:42:34.346Z,3.17
2022-10-06T00:43:40.658Z,3.33
2022-10-06T00:44:41.983Z,3.10
2022-10-06T00:45:46.921Z,2.80
2022-10-06T00:46:50.243Z,3.63
2022-10-06T00:47:52.605Z,3.50
2022-10-06T00:49:14.275Z,3.00
2022-10-06T00:50:16.192Z,3.27
2022-10-06T00:51:17.737Z,3.37
2022-10-06T00:52:21.119Z,3.13
2022-10-06T00:53:22.795Z,2.83
2022-10-06T00:54:25.045Z,2.80
2022-10-06T00:55:26.415Z,3.13
2022-10-06T00:56:27.889Z,3.17
2022-10-06T00:57:29.304Z,2.97
2022-10-06T00:58:31.732Z,3.10
2022-10-06T00:59:33.849Z,3.03
2022-10-06T01:00:35.358Z,3.00
2022-10-06T01:01:39.086Z,3.30
2022-10-06T01:02:52.546Z,3.20
2022-10-06T01:03:57.234Z,3.20
2022-10-06T01:05:00.694Z,3.00
2022-10-06T01:06:02.411Z,3.33
2022-10-06T01:07:03.731Z,3.20
2022-10-06T01:08:05.070Z,3.17
2022-10-06T01:09:06.428Z,3.17
2022-10-06T01:10:07.952Z,3.37
2022-10-06T01:11:13.129Z,3.20
2022-10-06T01:12:14.953Z,3.13
2022-10-06T01:13:17.504Z,3.50
2022-10-06T01:14:19.695Z,3.10
2022-10-06T01:15:21.473Z,3.07
2022-10-06T01:16:26.917Z,3.10
2022-10-06T01:17:58.164Z,3.00
2022-10-06T01:19:02.337Z,2.97
2022-10-06T01:20:08.979Z,3.37
2022-10-06T01:21:13.919Z,3.53
2022-10-06T01:22:16.378Z,3.30
2022-10-06T01:23:17.905Z,3.30
2022-10-06T01:24:21.132Z,4.00
2022-10-06T01:25:22.923Z,4.17
2022-10-06T01:26:26.344Z,4.80
2022-10-06T01:27:29.649Z,4.60
2022-10-06T01:28:31.598Z,4.60
2022-10-06T01:29:34.070Z,5.10
2022-10-06T01:30:45.921Z,5.30
2022-10-06T01:31:48.509Z,4.30
2022-10-06T01:32:50.042Z,4.67
2022-10-06T01:33:52.464Z,4.13
2022-10-06T01:34:53.869Z,4.07
2022-10-06T01:35:56.461Z,4.23
2022-10-06T01:36:58.310Z,3.67
2022-10-06T01:38:00.628Z,3.60
2022-10-06T01:39:04.049Z,3.40
2022-10-06T01:40:05.650Z,3.33
2022-10-06T01:41:07.417Z,3.30
2022-10-06T01:42:10.245Z,3.27
2022-10-06T01:43:12.322Z,3.50
2022-10-06T01:44:14.197Z,3.40
2022-10-06T01:45:15.571Z,3.53
2022-10-06T01:46:16.974Z,3.57
2022-10-06T01:47:18.314Z,3.40
2022-10-06T01:48:19.662Z,3.23
2022-10-06T01:49:20.957Z,3.13
2022-10-06T01:50:22.787Z,3.40
2022-10-06T01:51:24.096Z,3.23
2022-10-06T01:52:26.420Z,3.40
2022-10-06T01:53:27.798Z,3.70
2022-10-06T01:54:29.193Z,3.30
2022-10-06T01:55:30.564Z,3.90
2022-10-06T01:56:33.581Z,3.43
2022-10-06T01:57:39.636Z,3.93
2022-10-06T01:58:41.359Z,3.40
2022-10-06T01:59:43.157Z,3.40
2022-10-06T02:00:44.712Z,3.20
2022-10-06T02:01:46.155Z,3.60
2022-10-06T02:02:48.297Z,3.40
2022-10-06T02:03:49.581Z,3.37
2022-10-06T02:04:50.888Z,4.07
2022-10-06T02:05:56.032Z,3.77
2022-10-06T02:06:57.481Z,3.20
2022-10-06T02:07:58.807Z,3.43
2022-10-06T02:09:00.781Z,3.70
2022-10-06T02:10:02.449Z,3.57
2022-10-06T02:11:08.964Z,3.40
2022-10-06T02:12:15.856Z,4.03
2022-10-06T02:13:17.185Z,3.37
2022-10-06T02:14:18.770Z,3.57
2022-10-06T02:15:20.637Z,4.10
2022-10-06T02:16:22.061Z,3.63
2022-10-06T02:17:23.464Z,3.27
2022-10-06T02:18:25.626Z,3.67
2022-10-06T02:19:29.315Z,3.53
2022-10-06T02:20:33.291Z,4.00
2022-10-06T02:21:35.248Z,3.50
2022-10-06T02:22:37.889Z,3.53
2022-10-06T02:23:39.325Z,3.60
2022-10-06T02:24:43.702Z,3.40
2022-10-06T02:25:45.044Z,3.60
2022-10-06T02:26:46.742Z,3.80
2022-10-06T02:27:48.295Z,3.70
2022-10-06T02:28:50.697Z,3.33
2022-10-06T02:29:55.864Z,3.03
2022-10-06T02:31:01.673Z,3.10
2022-10-06T02:32:03.023Z,3.33
2022-10-06T02:33:04.393Z,3.67
2022-10-06T02:34:05.999Z,3.60
2022-10-06T02:35:07.728Z,3.30
2022-10-06T02:36:11.284Z,3.40
2022-10-06T02:37:13.122Z,3.50
2022-10-06T02:38:14.404Z,3.47
2022-10-06T02:39:15.792Z,3.50
2022-10-06T02:40:17.238Z,3.83
2022-10-06T02:41:19.637Z,3.73
2022-10-06T02:42:21.282Z,3.77
2022-10-06T02:43:22.661Z,3.20
2022-10-06T02:44:24.979Z,3.10
2022-10-06T02:45:27.893Z,3.60
2022-10-06T02:46:31.014Z,3.50
2022-10-06T02:47:33.164Z,3.30
2022-10-06T02:48:34.927Z,3.30
2022-10-06T02:49:37.872Z,3.53
2022-10-06T02:50:39.318Z,3.57
2022-10-06T02:51:41.563Z,3.60
2022-10-06T02:52:42.941Z,3.90
2022-10-06T02:53:47.442Z,3.57
2022-10-06T02:54:48.751Z,3.63
2022-10-06T02:55:50.149Z,3.47
2022-10-06T02:56:51.481Z,3.63
2022-10-06T02:57:53.846Z,3.77
2022-10-06T02:58:55.607Z,3.90
2022-10-06T03:00:03.948Z,3.97
2022-10-06T03:01:08.555Z,4.07
2022-10-06T03:02:11.808Z,3.73
2022-10-06T03:03:13.230Z,3.80
2022-10-06T03:04:14.551Z,4.10
2022-10-06T03:05:16.809Z,3.90
2022-10-06T03:06:22.349Z,3.53
2022-10-06T03:07:33.700Z,4.00
2022-10-06T03:08:35.112Z,4.13
2022-10-06T03:09:36.463Z,3.70
2022-10-06T03:10:37.857Z,3.90
2022-10-06T03:11:40.598Z,3.70
2022-10-06T03:12:43.271Z,3.70
2022-10-06T03:13:44.951Z,3.53
2022-10-06T03:14:46.293Z,3.63
2022-10-06T03:15:47.831Z,4.07
2022-10-06T03:16:55.239Z,5.27
2022-10-06T03:18:00.245Z,4.17
2022-10-06T03:19:03.475Z,4.00
2022-10-06T03:20:05.573Z,3.90
2022-10-06T03:21:07.302Z,3.93
2022-10-06T03:22:08.750Z,4.23
2022-10-06T03:23:21.623Z,4.00
2022-10-06T03:24:23.013Z,4.43
2022-10-06T03:25:28.843Z,3.90
2022-10-06T03:26:31.833Z,4.27
2022-10-06T03:27:33.506Z,4.23
2022-10-06T03:28:37.619Z,4.17
2022-10-06T03:29:39.021Z,3.80
2022-10-06T03:30:40.405Z,4.03
2022-10-06T03:31:43.178Z,4.07
2022-10-06T03:32:44.571Z,4.33
2022-10-06T03:33:45.940Z,4.20
2022-10-06T03:34:47.659Z,4.20
2022-10-06T03:35:58.311Z,4.10
2022-10-06T03:36:59.669Z,4.27
2022-10-06T03:38:02.677Z,4.60
2022-10-06T03:39:05.189Z,4.33
2022-10-06T03:40:08.296Z,4.30
2022-10-06T03:41:11.890Z,4.10
2022-10-06T03:42:13.395Z,4.20
2022-10-06T03:43:14.783Z,4.50
2022-10-06T03:44:16.240Z,4.00
2022-10-06T03:45:18.174Z,4.30
2022-10-06T03:46:20.684Z,4.40
2022-10-06T03:47:22.039Z,4.33
2022-10-06T03:48:23.426Z,4.70
2022-10-06T03:49:24.728Z,4.40
2022-10-06T03:50:27.320Z,4.77
2022-10-06T03:51:31.201Z,4.10
2022-10-06T03:52:32.600Z,4.83
2022-10-06T03:53:35.013Z,4.70
2022-10-06T03:54:36.365Z,4.50
2022-10-06T03:55:37.710Z,4.80
2022-10-06T03:56:40.717Z,4.70
2022-10-06T03:57:43.902Z,4.73
2022-10-06T03:58:46.947Z,4.43
2022-10-06T03:59:48.263Z,4.40
2022-10-06T04:00:50.009Z,4.47
2022-10-06T04:01:52.822Z,4.80
2022-10-06T04:02:59.019Z,4.57
2022-10-06T04:04:00.990Z,4.37
2022-10-06T04:05:02.360Z,4.10
2022-10-06T04:06:05.487Z,4.50
2022-10-06T04:07:06.976Z,4.27
2022-10-06T04:08:08.263Z,4.30
2022-10-06T04:09:15.020Z,4.00
2022-10-06T04:10:17.188Z,4.73
2022-10-06T04:11:21.283Z,4.00
2022-10-06T04:12:22.680Z,4.37
2022-10-06T04:13:24.275Z,4.67
2022-10-06T04:14:25.618Z,4.70
2022-10-06T04:15:27.366Z,4.20
2022-10-06T04:16:33.250Z,4.33
2022-10-06T04:17:34.986Z,4.80
2022-10-06T04:18:37.072Z,4.50
2022-10-06T04:19:38.506Z,3.93
2022-10-06T04:20:40.215Z,4.70
2022-10-06T04:21:42.606Z,4.27
2022-10-06T04:22:46.228Z,4.57
2022-10-06T04:23:48.303Z,5.17
2022-10-06T04:24:50.517Z,6.87
2022-10-06T04:25:57.912Z,8.83
2022-10-06T04:27:19.177Z,10.23
2022-10-06T04:28:32.585Z,10.53
2022-10-06T04:29:34.321Z,9.40
2022-10-06T04:30:36.815Z,9.67
2022-10-06T04:31:39.111Z,7.70
2022-10-06T04:32:42.807Z,8.17
2022-10-06T04:33:45.691Z,10.10
2022-10-06T04:34:47.036Z,9.97
2022-10-06T04:35:56.229Z,10.37
2022-10-06T04:36:57.574Z,10.17
2022-10-06T04:37:58.921Z,8.63
2022-10-06T04:39:02.634Z,6.43
2022-10-06T04:40:05.494Z,5.13
2022-10-06T04:41:08.697Z,3.90
2022-10-06T04:42:10.074Z,3.60
2022-10-06T04:43:11.784Z,3.57
2022-10-06T04:44:13.237Z,3.10
2022-10-06T04:45:14.711Z,2.77
2022-10-06T04:46:41.763Z,2.80
2022-10-06T04:47:40.147Z,2.93
2022-10-06T04:48:41.540Z,3.20
2022-10-06T04:49:42.854Z,3.03
2022-10-06T04:50:52.672Z,3.03
2022-10-06T04:51:53.956Z,3.20
2022-10-06T04:52:56.747Z,2.87
2022-10-06T04:53:58.163Z,2.80
2022-10-06T04:55:00.941Z,3.33
2022-10-06T04:56:02.549Z,3.07
2022-10-06T04:57:05.861Z,3.20
2022-10-06T04:58:07.299Z,2.70
2022-10-06T04:59:08.984Z,2.53
2022-10-06T05:00:25.495Z,2.43
2022-10-06T05:01:31.973Z,2.57
2022-10-06T05:02:34.739Z,2.70
2022-10-06T05:03:36.119Z,2.37
2022-10-06T05:04:37.581Z,2.20
2022-10-06T05:05:38.924Z,1.90
2022-10-06T05:06:41.641Z,2.10
2022-10-06T05:07:45.260Z,1.93
2022-10-06T05:08:51.282Z,2.20
2022-10-06T05:09:52.724Z,2.37
2022-10-06T05:11:04.292Z,1.90
2022-10-06T05:12:06.092Z,2.10
2022-10-06T05:13:08.369Z,1.93
2022-10-06T05:14:10.322Z,3.03
2022-10-06T05:15:16.584Z,2.20
2022-10-06T05:16:18.026Z,2.20
2022-10-06T05:17:20.558Z,1.67
2022-10-06T05:18:22.339Z,2.20
2022-10-06T05:19:23.692Z,1.90
2022-10-06T05:20:25.097Z,2.00
2022-10-06T05:21:28.220Z,2.40
2022-10-06T05:22:29.897Z,2.17
2022-10-06T05:23:34.550Z,2.30
2022-10-06T05:24:35.867Z,2.20
2022-10-06T05:25:37.933Z,2.10
2022-10-06T05:26:39.268Z,2.17
2022-10-06T05:27:44.433Z,2.17
2022-10-06T05:28:45.913Z,2.80
2022-10-06T05:29:47.633Z,3.83
2022-10-06T05:30:59.495Z,4.33
2022-10-06T05:32:01.031Z,3.97
2022-10-06T05:33:03.770Z,2.80
2022-10-06T05:34:05.364Z,3.17
2022-10-06T05:35:07.790Z,2.33
2022-10-06T05:36:16.813Z,2.30
2022-10-06T05:37:18.265Z,2.57
2022-10-06T05:38:19.764Z,3.43
2022-10-06T05:39:21.055Z,3.10
2022-10-06T05:40:29.330Z,3.43
2022-10-06T05:41:31.528Z,3.50
2022-10-06T05:42:35.454Z,3.20
2022-10-06T05:43:37.653Z,3.17
2022-10-06T05:44:39.048Z,3.03
2022-10-06T05:45:54.113Z,3.20
2022-10-06T05:46:55.523Z,2.80
2022-10-06T05:47:56.833Z,3.10
2022-10-06T05:48:59.193Z,2.90
2022-10-06T05:50:03.302Z,2.77
2022-10-06T05:51:06.177Z,2.97
2022-10-06T05:52:08.015Z,3.20
2022-10-06T05:53:10.912Z,2.97
2022-10-06T05:54:14.256Z,2.67
2022-10-06T05:55:15.694Z,3.40
2022-10-06T05:56:18.212Z,2.83
2022-10-06T05:57:19.585Z,3.13
2022-10-06T05:58:20.992Z,3.27
2022-10-06T05:59:22.331Z,3.07
2022-10-06T06:00:24.167Z,3.10
2022-10-06T06:01:27.666Z,2.97
2022-10-06T06:02:30.311Z,3.37
2022-10-06T06:03:31.926Z,3.20
2022-10-06T06:04:33.273Z,2.93
2022-10-06T06:05:40.046Z,2.73
2022-10-06T06:06:42.577Z,3.13
2022-10-06T06:07:46.884Z,3.10
2022-10-06T06:08:51.245Z,3.13
2022-10-06T06:09:53.238Z,2.70
2022-10-06T06:10:54.595Z,2.70
2022-10-06T06:11:57.610Z,2.73
2022-10-06T06:13:04.195Z,3.27
2022-10-06T06:14:11.700Z,2.97
2022-10-06T06:15:31.587Z,2.90
2022-10-06T06:16:36.971Z,2.93
2022-10-06T06:17:38.351Z,3.07
2022-10-06T06:18:40.253Z,2.90
2022-10-06T06:19:43.070Z,2.70
2022-10-06T06:20:44.502Z,3.07
2022-10-06T06:21:45.999Z,3.00
2022-10-06T06:22:51.650Z,3.23
2022-10-06T06:23:53.147Z,2.80
2022-10-06T06:24:54.556Z,2.70
2022-10-06T06:25:59.983Z,2.67
2022-10-06T06:27:03.777Z,2.30
2022-10-06T06:28:05.801Z,2.10
2022-10-06T06:29:07.314Z,2.60
2022-10-06T06:30:13.712Z,2.37
2022-10-06T06:31:20.987Z,2.00
2022-10-06T06:32:24.903Z,2.30
2022-10-06T06:33:26.472Z,2.33
2022-10-06T06:34:28.107Z,2.17
2022-10-06T06:35:29.637Z,2.00
2022-10-06T06:36:40.767Z,2.00
2022-10-06T06:37:46.539Z,2.30
2022-10-06T06:38:52.087Z,2.60
2022-10-06T06:39:54.577Z,2.00
2022-10-06T06:40:56.209Z,2.20
2022-10-06T06:41:57.645Z,2.50
2022-10-06T06:43:22.842Z,2.60
2022-10-06T06:44:46.477Z,2.60
2022-10-06T06:46:04.181Z,2.47
2022-10-06T06:47:24.465Z,1.70
2022-10-06T06:48:28.397Z,1.60
2022-10-06T06:49:29.991Z,2.93
2022-10-06T06:50:36.944Z,2.10
2022-10-06T06:51:43.375Z,2.40
2022-10-06T06:52:44.752Z,2.07
2022-10-06T06:53:49.038Z,1.97
2022-10-06T06:54:50.478Z,1.63
2022-10-06T06:55:53.011Z,1.60
2022-10-06T06:56:57.668Z,1.70
2022-10-06T06:57:59.423Z,1.70
2022-10-06T06:59:01.590Z,1.80
2022-10-06T07:00:07.950Z,1.70
2022-10-06T07:01:13.745Z,1.90
2022-10-06T07:02:15.680Z,1.50
2022-10-06T07:03:38.491Z,1.23
2022-10-06T07:04:41.689Z,1.90
2022-10-06T07:05:46.312Z,2.00
2022-10-06T07:06:57.928Z,2.40
2022-10-06T07:08:02.914Z,1.50
2022-10-06T07:09:04.357Z,1.60
2022-10-06T07:10:05.969Z,1.50
2022-10-06T07:11:14.527Z,1.70
2022-10-06T07:12:16.372Z,1.30
2022-10-06T07:13:25.020Z,1.73
2022-10-06T07:14:27.201Z,1.37
2022-10-06T07:15:49.220Z,1.30
2022-10-06T07:17:09.909Z,1.30
2022-10-06T07:18:33.315Z,1.20
2022-10-06T07:19:40.388Z,1.33
2022-10-06T07:21:01.296Z,1.33
2022-10-06T07:22:23.768Z,1.90
2022-10-06T07:23:43.913Z,1.30
2022-10-06T07:25:07.843Z,1.43
2022-10-06T07:26:11.865Z,3.40
2022-10-06T07:27:13.301Z,2.47
2022-10-06T07:28:16.845Z,1.70
2022-10-06T07:29:18.236Z,1.90
2022-10-06T07:30:21.249Z,2.07
2022-10-06T07:31:31.579Z,1.47
2022-10-06T07:32:32.999Z,1.30
2022-10-06T07:33:34.315Z,1.60
2022-10-06T07:34:39.483Z,1.87
2022-10-06T07:35:40.898Z,1.97
2022-10-06T07:36:50.226Z,2.10
2022-10-06T07:37:53.120Z,1.47
2022-10-06T07:38:56.385Z,1.53
2022-10-06T07:39:57.778Z,1.50
2022-10-06T07:41:19.417Z,1.07
2022-10-06T07:42:24.013Z,1.27
2022-10-06T07:43:25.323Z,1.30
2022-10-06T07:44:27.238Z,1.37
2022-10-06T07:45:47.004Z,1.20
2022-10-06T07:47:02.761Z,1.10
2022-10-06T07:48:25.742Z,1.30
2022-10-06T07:49:36.291Z,1.53
2022-10-06T07:50:38.642Z,1.10
2022-10-06T07:51:40.384Z,1.10
2022-10-06T07:52:42.079Z,1.20
2022-10-06T07:53:46.569Z,1.17
2022-10-06T07:55:06.807Z,1.80
2022-10-06T07:56:20.871Z,1.10
2022-10-06T07:57:30.129Z,1.30
2022-10-06T07:58:32.233Z,1.07
2022-10-06T07:59:34.700Z,1.23
2022-10-06T08:00:36.120Z,1.10
2022-10-06T08:01:38.864Z,1.10
2022-10-06T08:02:40.253Z,1.40
2022-10-06T08:03:42.343Z,1.40
2022-10-06T08:04:43.662Z,1.07
2022-10-06T08:05:45.893Z,1.47
2022-10-06T08:06:49.344Z,1.50
2022-10-06T08:07:51.552Z,1.13
2022-10-06T08:08:53.478Z,1.10
2022-10-06T08:09:54.969Z,1.40
2022-10-06T08:10:58.355Z,1.37
2022-10-06T08:12:21.493Z,2.00
2022-10-06T08:13:22.979Z,2.10
2022-10-06T08:14:24.324Z,2.07
2022-10-06T08:15:25.697Z,2.13
2022-10-06T08:16:30.629Z,1.40
2022-10-06T08:17:33.427Z,1.30
2022-10-06T08:18:45.980Z,1.40
2022-10-06T08:19:48.101Z,1.10
2022-10-06T08:20:49.497Z,1.20
2022-10-06T08:21:50.800Z,1.33
2022-10-06T08:22:52.114Z,1.27
2022-10-06T08:23:53.731Z,1.30
2022-10-06T08:25:05.789Z,1.20
2022-10-06T08:26:09.074Z,1.40
2022-10-06T08:27:10.454Z,1.27
2022-10-06T08:28:12.844Z,1.27
2022-10-06T08:29:14.334Z,1.70
2022-10-06T08:30:15.681Z,1.30
2022-10-06T08:31:18.132Z,1.23
2022-10-06T08:32:20.424Z,1.33
2022-10-06T08:33:21.765Z,1.10
2022-10-06T08:34:23.534Z,1.33
2022-10-06T08:35:24.812Z,1.10
2022-10-06T08:36:30.972Z,1.40
2022-10-06T08:37:33.506Z,1.37
2022-10-06T08:38:38.399Z,1.80
2022-10-06T08:39:42.773Z,1.60
2022-10-06T08:40:44.755Z,1.83
2022-10-06T08:41:50.995Z,1.17
2022-10-06T08:42:55.188Z,1.20
2022-10-06T08:44:18.556Z,1.30
2022-10-06T08:45:38.828Z,1.40
2022-10-06T08:46:46.630Z,1.27
2022-10-06T08:47:55.188Z,1.47
2022-10-06T08:48:58.386Z,1.60
2022-10-06T08:50:00.052Z,1.90
2022-10-06T08:51:12.445Z,2.17
2022-10-06T08:52:20.473Z,1.50
2022-10-06T08:53:38.109Z,1.30
2022-10-06T08:55:05.206Z,1.53
2022-10-06T08:56:25.295Z,1.20
2022-10-06T08:57:26.589Z,2.50
2022-10-06T08:58:46.651Z,1.90
2022-10-06T08:59:49.273Z,1.57
2022-10-06T09:00:53.484Z,1.70
2022-10-06T09:01:55.071Z,1.33
2022-10-06T09:02:56.664Z,1.43
2022-10-06T09:04:01.635Z,2.10
2022-10-06T09:05:04.247Z,1.70
2022-10-06T09:06:14.029Z,1.50
2022-10-06T09:07:19.508Z,2.10
2022-10-06T09:08:37.943Z,3.00
2022-10-06T09:10:02.611Z,1.93
2022-10-06T09:11:03.885Z,1.37
2022-10-06T09:12:11.197Z,1.50
2022-10-06T09:13:19.631Z,1.50
2022-10-06T09:14:28.324Z,1.20
2022-10-06T09:15:40.003Z,1.07
2022-10-06T09:16:44.101Z,1.50
2022-10-06T09:17:50.158Z,1.70
2022-10-06T09:19:08.136Z,1.90
2022-10-06T09:20:42.516Z,2.03
2022-10-06T09:21:46.497Z,1.90
2022-10-06T09:22:50.105Z,1.80
2022-10-06T09:23:56.957Z,2.13
2022-10-06T09:25:18.054Z,1.80
2022-10-06T09:26:23.882Z,2.53
2022-10-06T09:27:32.353Z,1.70
2022-10-06T09:28:33.777Z,1.90
2022-10-06T09:29:35.204Z,2.00
2022-10-06T09:30:37.349Z,2.03
2022-10-06T09:31:40.351Z,2.50
2022-10-06T09:32:46.627Z,2.10
2022-10-06T09:33:48.421Z,2.23
2022-10-06T09:34:55.325Z,2.90
2022-10-06T09:36:09.120Z,1.97
2022-10-06T09:37:13.574Z,1.83
2022-10-06T09:38:14.860Z,1.87
2022-10-06T09:39:22.228Z,1.83
2022-10-06T09:40:51.206Z,1.40
2022-10-06T09:41:54.198Z,1.60
2022-10-06T09:42:56.308Z,1.50
2022-10-06T09:44:05.600Z,1.87
2022-10-06T09:45:16.100Z,1.90
2022-10-06T09:46:18.657Z,1.57
2022-10-06T09:47:28.881Z,1.77
2022-10-06T09:48:30.214Z,1.87
2022-10-06T09:49:31.587Z,1.80
2022-10-06T09:50:35.192Z,1.83
2022-10-06T09:51:37.977Z,1.50
2022-10-06T09:52:40.210Z,1.90
2022-10-06T09:53:42.376Z,1.70
2022-10-06T09:54:44.703Z,1.50
2022-10-06T09:55:51.326Z,1.30
2022-10-06T09:56:54.056Z,1.97
2022-10-06T09:57:56.382Z,2.20
2022-10-06T09:58:59.364Z,2.33
2022-10-06T10:00:01.571Z,1.70
2022-10-06T10:01:06.561Z,1.50
2022-10-06T10:02:32.260Z,2.10
2022-10-06T10:04:02.073Z,2.20
2022-10-06T10:05:18.309Z,2.23
2022-10-06T10:06:27.572Z,1.50
2022-10-06T10:07:29.882Z,1.97
2022-10-06T10:08:31.324Z,1.80
2022-10-06T10:09:32.780Z,1.87
2022-10-06T10:10:35.921Z,1.73
2022-10-06T10:11:55.993Z,1.80
2022-10-06T10:12:58.485Z,1.67
2022-10-06T10:14:00.161Z,2.10
2022-10-06T10:15:03.681Z,2.07
2022-10-06T10:16:05.135Z,1.77
2022-10-06T10:17:07.924Z,1.77
2022-10-06T10:18:12.851Z,1.53
2022-10-06T10:19:25.006Z,1.40
2022-10-06T10:20:34.437Z,1.90
2022-10-06T10:21:37.059Z,2.00
2022-10-06T10:22:41.240Z,2.70
2022-10-06T10:23:55.183Z,8.20
2022-10-06T10:25:16.758Z,9.17
2022-10-06T10:26:27.097Z,3.60
2022-10-06T10:27:38.720Z,5.40
2022-10-06T10:29:15.794Z,4.03
2022-10-06T10:30:17.174Z,3.63
2022-10-06T10:31:25.962Z,1.70
2022-10-06T10:32:46.071Z,2.00
2022-10-06T10:33:59.517Z,2.53
2022-10-06T10:35:12.045Z,1.87
2022-10-06T10:36:16.450Z,4.03
2022-10-06T10:37:25.262Z,3.30
2022-10-06T10:38:27.087Z,1.60
2022-10-06T10:39:33.693Z,1.20
2022-10-06T10:40:37.425Z,1.37
2022-10-06T10:41:44.891Z,1.03
2022-10-06T10:42:58.379Z,1.20
2022-10-06T10:44:07.278Z,1.10
2022-10-06T10:45:22.559Z,1.10
2022-10-06T10:46:27.484Z,1.00
2022-10-06T10:47:35.273Z,1.07
2022-10-06T10:48:40.112Z,1.37
2022-10-06T10:49:44.313Z,1.07
2022-10-06T10:50:49.488Z,0.90
2022-10-06T10:51:57.257Z,1.00
2022-10-06T10:53:09.089Z,0.73
2022-10-06T10:54:33.447Z,1.10
2022-10-06T10:55:38.036Z,0.67
2022-10-06T10:56:39.667Z,0.80
2022-10-06T10:57:41.421Z,0.80
2022-10-06T10:58:43.878Z,0.77
2022-10-06T11:00:01.627Z,0.80
2022-10-06T11:01:09.782Z,0.90
2022-10-06T11:02:13.139Z,0.80
2022-10-06T11:03:14.831Z,1.00
2022-10-06T11:04:16.504Z,0.87
2022-10-06T11:05:30.525Z,0.77
2022-10-06T11:06:41.220Z,1.00
2022-10-06T11:08:01.527Z,1.00
2022-10-06T11:09:23.352Z,1.00
2022-10-06T11:10:38.204Z,0.97
2022-10-06T11:11:51.929Z,0.90
2022-10-06T11:13:02.487Z,0.87
2022-10-06T11:14:09.143Z,0.87
2022-10-06T11:15:10.401Z,1.20
2022-10-06T11:16:12.071Z,0.90
2022-10-06T11:17:13.398Z,1.00
2022-10-06T11:18:21.365Z,1.10
2022-10-06T11:19:34.994Z,1.00
2022-10-06T11:20:44.209Z,1.47
2022-10-06T11:21:55.416Z,1.40
2022-10-06T11:23:11.101Z,1.10
2022-10-06T11:24:31.391Z,1.67
2022-10-06T11:25:39.014Z,1.20
2022-10-06T11:26:53.307Z,1.43
2022-10-06T11:28:09.893Z,1.67
2022-10-06T11:29:30.225Z,1.30
2022-10-06T11:30:33.775Z,1.67
2022-10-06T11:31:54.624Z,1.50
2022-10-06T11:33:01.470Z,1.30
2022-10-06T11:34:03.907Z,1.60
2022-10-06T11:35:17.335Z,1.23
2022-10-06T11:36:23.021Z,1.57
2022-10-06T11:37:24.932Z,1.50
2022-10-06T11:38:32.224Z,1.40
2022-10-06T11:39:39.311Z,1.40
2022-10-06T11:40:59.408Z,1.37
2022-10-06T11:42:10.213Z,1.23
2022-10-06T11:43:17.750Z,1.30
2022-10-06T11:44:22.458Z,1.13
2022-10-06T11:45:27.893Z,1.20
2022-10-06T11:46:41.316Z,1.27
2022-10-06T11:48:03.718Z,1.23
2022-10-06T11:49:23.855Z,1.20
2022-10-06T11:50:31.265Z,1.20
2022-10-06T11:51:32.680Z,1.30
2022-10-06T11:52:35.145Z,1.60
2022-10-06T11:53:39.716Z,1.10
2022-10-06T11:54:50.039Z,1.13
2022-10-06T11:56:09.979Z,0.97
2022-10-06T11:57:29.326Z,0.90
2022-10-06T11:58:52.074Z,1.17
2022-10-06T11:59:54.991Z,1.00
2022-10-06T12:00:56.670Z,2.00
2022-10-06T12:01:58.832Z,1.17
2022-10-06T12:03:19.208Z,1.00
2022-10-06T12:04:24.528Z,1.13
2022-10-06T12:06:55.410Z,1.20
2022-10-06T12:07:56.799Z,1.30
2022-10-06T12:08:58.388Z,0.90
2022-10-06T12:10:18.029Z,0.90
2022-10-06T12:11:38.575Z,1.08
2022-10-06T12:12:40.984Z,1.00
2022-10-06T12:15:06.505Z,0.97
2022-10-06T12:17:11.533Z,1.07
2022-10-06T12:18:07.763Z,1.03
2022-10-06T12:19:19.391Z,1.10
2022-10-06T12:20:34.477Z,0.80
2022-10-06T12:21:48.679Z,1.37
2022-10-06T12:22:58.752Z,1.00
2022-10-06T12:24:02.073Z,1.17
2022-10-06T12:25:05.807Z,1.10
2022-10-06T12:26:17.164Z,1.27
2022-10-06T12:27:27.003Z,1.30
2022-10-06T12:28:48.600Z,1.03
2022-10-06T12:30:08.839Z,0.80
2022-10-06T12:31:25.674Z,1.00
2022-10-06T12:32:46.667Z,1.40
2022-10-06T12:33:48.459Z,1.20
2022-10-06T12:35:08.016Z,1.20
2022-10-06T12:36:17.887Z,1.20
2022-10-06T12:37:20.482Z,1.57
2022-10-06T12:38:31.012Z,1.63
2022-10-06T12:39:32.455Z,1.20
2022-10-06T12:40:41.029Z,1.30
2022-10-06T12:41:57.833Z,1.20
2022-10-06T12:43:23.250Z,1.03
2022-10-06T12:44:26.312Z,1.13
2022-10-06T12:45:27.622Z,1.03
2022-10-06T12:46:34.151Z,1.20
2022-10-06T12:47:41.085Z,1.50
2022-10-06T12:49:01.398Z,1.47
2022-10-06T12:50:14.532Z,2.40
2022-10-06T12:51:22.443Z,1.23
2022-10-06T12:52:31.412Z,1.30
2022-10-06T12:53:36.901Z,1.50
2022-10-06T12:54:43.785Z,1.30
2022-10-06T12:55:50.340Z,1.07
2022-10-06T12:57:00.881Z,1.20
2022-10-06T12:58:02.298Z,1.03
2022-10-06T12:59:23.979Z,1.23
2022-10-06T13:00:34.498Z,1.13
2022-10-06T13:01:35.910Z,1.63
2022-10-06T13:02:37.296Z,1.20
2022-10-06T13:03:39.081Z,0.93
2022-10-06T13:04:40.651Z,1.20
2022-10-06T13:05:42.371Z,0.90
2022-10-06T13:06:48.601Z,1.40
2022-10-06T13:08:00.831Z,0.90
2022-10-06T13:09:07.227Z,1.20
2022-10-06T13:10:11.671Z,1.10
2022-10-06T13:11:24.756Z,0.85
2022-10-06T13:12:30.663Z,1.20
2022-10-06T13:13:34.957Z,1.40
2022-10-06T13:14:36.602Z,1.20
2022-10-06T13:15:41.586Z,1.02
2022-10-06T13:16:45.480Z,1.13
2022-10-06T13:17:46.916Z,1.08
2022-10-06T13:18:48.458Z,1.20
2022-10-06T13:19:51.151Z,1.33
2022-10-06T13:20:53.212Z,1.10
2022-10-06T13:21:54.731Z,1.23
2022-10-06T13:23:16.289Z,1.30
2022-10-06T13:24:21.661Z,1.10
2022-10-06T13:25:22.973Z,1.00
2022-10-06T13:26:25.525Z,1.27
2022-10-06T13:27:26.889Z,1.50
2022-10-06T13:28:37.268Z,1.55
2022-10-06T13:29:38.783Z,1.00
2022-10-06T13:30:40.263Z,0.95
2022-10-06T13:31:50.072Z,1.27
2022-10-06T13:32:54.539Z,1.10
2022-10-06T13:34:16.034Z,1.30
2022-10-06T13:35:18.270Z,1.00
2022-10-06T13:36:20.249Z,1.30
2022-10-06T13:37:21.965Z,1.00
2022-10-06T13:38:23.351Z,1.40
2022-10-06T13:39:26.127Z,1.58
2022-10-06T13:40:44.025Z,3.17
2022-10-06T13:41:50.841Z,2.65
2022-10-06T13:42:52.336Z,1.40
2022-10-06T13:43:53.665Z,1.30
2022-10-06T13:44:57.943Z,1.17
2022-10-06T13:46:00.407Z,1.10
2022-10-06T13:47:22.519Z,1.20
2022-10-06T13:48:25.975Z,1.38
2022-10-06T13:49:47.300Z,1.05
2022-10-06T13:50:49.530Z,1.00
2022-10-06T13:51:52.816Z,1.08
2022-10-06T13:52:54.247Z,1.20
2022-10-06T13:53:57.255Z,1.50
2022-10-06T13:55:00.705Z,1.50
2022-10-06T13:56:02.565Z,1.00
2022-10-06T13:57:04.162Z,1.52
2022-10-06T13:58:09.444Z,1.48
2022-10-06T13:59:16.070Z,1.13
2022-10-06T14:00:24.666Z,1.20
2022-10-06T14:01:30.272Z,1.40
2022-10-06T14:02:35.217Z,1.23
2022-10-06T14:04:39.617Z,1.75
2022-10-06T14:05:41.762Z,1.23
2022-10-06T14:06:48.985Z,1.13
2022-10-06T14:07:50.604Z,1.20
2022-10-06T14:08:54.262Z,1.00
2022-10-06T14:09:55.686Z,1.20
2022-10-06T14:10:58.355Z,1.70
2022-10-06T14:12:05.283Z,1.20
2022-10-06T14:13:29.650Z,1.23
2022-10-06T14:14:31.166Z,1.20
2022-10-06T14:15:36.493Z,1.20
2022-10-06T14:16:37.855Z,1.10
2022-10-06T14:17:39.204Z,1.43
2022-10-06T14:18:43.837Z,1.13
2022-10-06T14:19:45.344Z,1.42
2022-10-06T14:20:48.140Z,1.03
2022-10-06T14:21:49.499Z,1.10
2022-10-06T14:22:50.814Z,1.08
2022-10-06T14:23:53.035Z,1.10
2022-10-06T14:24:54.986Z,1.20
2022-10-06T14:25:56.364Z,1.10
2022-10-06T14:27:01.373Z,0.95
2022-10-06T14:28:02.774Z,1.15
2022-10-06T14:29:04.373Z,1.00
2022-10-06T14:30:06.015Z,1.13
2022-10-06T14:31:11.960Z,0.88
2022-10-06T14:32:16.419Z,1.20
2022-10-06T14:33:17.762Z,1.20
2022-10-06T14:34:20.146Z,1.20
2022-10-06T14:35:21.522Z,1.67